sensor_id;sensor_type;location;lat;lon;timestamp;P1;durP1;ratioP1;P2;durP2;ratioP2
34497;SDS011;20744;50.938;7.286;2022-10-16T00:00:56;12.30;;;8.25;;
34497;SDS011;20744;50.938;7.286;2022-10-16T00:03:23;10.43;;;7.78;;
34497;SDS011;20744;50.938;7.286;2022-10-16T00:05:50;12.52;;;8.40;;
34497;SDS011;20744;50.938;7.286;2022-10-16T00:08:16;13.43;;;8.10;;
34497;SDS011;20744;50.938;7.286;2022-10-16T00:10:43;12.85;;;7.65;;
34497;SDS011;20744;50.938;7.286;2022-10-16T00:13:10;18.50;;;8.40;;
34497;SDS011;20744;50.938;7.286;2022-10-16T00:15:38;15.25;;;8.63;;
34497;SDS011;20744;50.938;7.286;2022-10-16T00:18:08;15.63;;;8.32;;
34497;SDS011;20744;50.938;7.286;2022-10-16T00:20:34;12.77;;;7.68;;
34497;SDS011;20744;50.938;7.286;2022-10-16T00:23:02;17.30;;;7.70;;
34497;SDS011;20744;50.938;7.286;2022-10-16T00:25:30;15.82;;;8.32;;
34497;SDS011;20744;50.938;7.286;2022-10-16T00:27:58;19.90;;;8.38;;
34497;SDS011;20744;50.938;7.286;2022-10-16T00:30:25;15.38;;;8.52;;
34497;SDS011;20744;50.938;7.286;2022-10-16T00:32:55;13.65;;;9.00;;
34497;SDS011;20744;50.938;7.286;2022-10-16T00:35:22;15.52;;;7.55;;
34497;SDS011;20744;50.938;7.286;2022-10-16T00:37:49;12.40;;;8.20;;
34497;SDS011;20744;50.938;7.286;2022-10-16T00:40:16;16.40;;;8.05;;
34497;SDS011;20744;50.938;7.286;2022-10-16T00:42:43;22.35;;;8.13;;
34497;SDS011;20744;50.938;7.286;2022-10-16T00:45:10;11.60;;;6.70;;
34497;SDS011;20744;50.938;7.286;2022-10-16T00:47:38;12.55;;;6.78;;
34497;SDS011;20744;50.938;7.286;2022-10-16T00:50:09;22.73;;;7.13;;
34497;SDS011;20744;50.938;7.286;2022-10-16T00:52:40;10.45;;;6.30;;
34497;SDS011;20744;50.938;7.286;2022-10-16T00:55:11;10.75;;;6.05;;
34497;SDS011;20744;50.938;7.286;2022-10-16T00:57:39;9.45;;;5.38;;
34497;SDS011;20744;50.938;7.286;2022-10-16T01:00:10;14.55;;;6.65;;
34497;SDS011;20744;50.938;7.286;2022-10-16T01:02:38;8.05;;;5.45;;
34497;SDS011;20744;50.938;7.286;2022-10-16T01:05:05;12.50;;;5.78;;
34497;SDS011;20744;50.938;7.286;2022-10-16T01:07:36;10.95;;;4.72;;
34497;SDS011;20744;50.938;7.286;2022-10-16T01:10:14;14.10;;;5.07;;
34497;SDS011;20744;50.938;7.286;2022-10-16T01:12:55;5.72;;;4.63;;
34497;SDS011;20744;50.938;7.286;2022-10-16T01:15:27;17.63;;;4.97;;
34497;SDS011;20744;50.938;7.286;2022-10-16T01:18:00;8.77;;;4.22;;
34497;SDS011;20744;50.938;7.286;2022-10-16T01:20:33;6.60;;;3.95;;
34497;SDS011;20744;50.938;7.286;2022-10-16T01:23:07;8.95;;;4.10;;
34497;SDS011;20744;50.938;7.286;2022-10-16T01:25:49;8.82;;;4.32;;
34497;SDS011;20744;50.938;7.286;2022-10-16T01:28:36;9.68;;;4.03;;
34497;SDS011;20744;50.938;7.286;2022-10-16T01:31:08;8.80;;;3.20;;
34497;SDS011;20744;50.938;7.286;2022-10-16T01:33:38;4.65;;;3.22;;
34497;SDS011;20744;50.938;7.286;2022-10-16T01:36:09;7.38;;;3.50;;
34497;SDS011;20744;50.938;7.286;2022-10-16T01:38:37;9.80;;;2.65;;
34497;SDS011;20744;50.938;7.286;2022-10-16T01:41:07;7.03;;;3.15;;
34497;SDS011;20744;50.938;7.286;2022-10-16T01:43:38;6.60;;;3.35;;
34497;SDS011;20744;50.938;7.286;2022-10-16T01:46:07;7.40;;;3.95;;
34497;SDS011;20744;50.938;7.286;2022-10-16T01:48:36;9.98;;;3.72;;
34497;SDS011;20744;50.938;7.286;2022-10-16T01:51:04;5.28;;;3.58;;
34497;SDS011;20744;50.938;7.286;2022-10-16T01:53:32;11.70;;;3.85;;
34497;SDS011;20744;50.938;7.286;2022-10-16T01:56:00;7.28;;;3.00;;
34497;SDS011;20744;50.938;7.286;2022-10-16T01:58:29;9.07;;;3.67;;
34497;SDS011;20744;50.938;7.286;2022-10-16T02:01:01;4.97;;;3.30;;
34497;SDS011;20744;50.938;7.286;2022-10-16T02:03:28;11.93;;;4.05;;
34497;SDS011;20744;50.938;7.286;2022-10-16T02:05:56;10.38;;;3.50;;
34497;SDS011;20744;50.938;7.286;2022-10-16T02:08:25;7.45;;;4.07;;
34497;SDS011;20744;50.938;7.286;2022-10-16T02:10:54;6.28;;;3.70;;
34497;SDS011;20744;50.938;7.286;2022-10-16T02:13:21;5.30;;;3.08;;
34497;SDS011;20744;50.938;7.286;2022-10-16T02:15:50;9.77;;;3.60;;
34497;SDS011;20744;50.938;7.286;2022-10-16T02:18:19;10.57;;;3.33;;
34497;SDS011;20744;50.938;7.286;2022-10-16T02:20:48;11.38;;;3.85;;
34497;SDS011;20744;50.938;7.286;2022-10-16T02:23:19;11.10;;;3.33;;
34497;SDS011;20744;50.938;7.286;2022-10-16T02:25:50;8.45;;;3.95;;
34497;SDS011;20744;50.938;7.286;2022-10-16T02:28:19;6.63;;;3.28;;
34497;SDS011;20744;50.938;7.286;2022-10-16T02:30:50;8.35;;;3.45;;
34497;SDS011;20744;50.938;7.286;2022-10-16T02:33:20;9.40;;;3.58;;
34497;SDS011;20744;50.938;7.286;2022-10-16T02:35:48;10.45;;;3.97;;
34497;SDS011;20744;50.938;7.286;2022-10-16T02:38:16;5.63;;;3.67;;
34497;SDS011;20744;50.938;7.286;2022-10-16T02:40:44;12.98;;;3.80;;
34497;SDS011;20744;50.938;7.286;2022-10-16T02:43:11;7.40;;;3.88;;
34497;SDS011;20744;50.938;7.286;2022-10-16T02:45:39;8.65;;;4.57;;
34497;SDS011;20744;50.938;7.286;2022-10-16T02:48:06;11.55;;;6.13;;
34497;SDS011;20744;50.938;7.286;2022-10-16T02:50:35;13.05;;;6.28;;
34497;SDS011;20744;50.938;7.286;2022-10-16T02:53:02;14.57;;;6.35;;
34497;SDS011;20744;50.938;7.286;2022-10-16T02:55:30;10.80;;;5.25;;
34497;SDS011;20744;50.938;7.286;2022-10-16T02:57:57;11.13;;;5.53;;
34497;SDS011;20744;50.938;7.286;2022-10-16T03:00:24;11.63;;;5.28;;
34497;SDS011;20744;50.938;7.286;2022-10-16T03:02:51;11.63;;;5.50;;
34497;SDS011;20744;50.938;7.286;2022-10-16T03:05:19;8.70;;;5.15;;
34497;SDS011;20744;50.938;7.286;2022-10-16T03:07:47;9.68;;;5.90;;
34497;SDS011;20744;50.938;7.286;2022-10-16T03:10:15;10.63;;;5.75;;
34497;SDS011;20744;50.938;7.286;2022-10-16T03:12:42;9.05;;;5.13;;
34497;SDS011;20744;50.938;7.286;2022-10-16T03:15:09;10.48;;;5.15;;
34497;SDS011;20744;50.938;7.286;2022-10-16T03:17:36;7.57;;;5.05;;
34497;SDS011;20744;50.938;7.286;2022-10-16T03:20:04;10.02;;;4.57;;
34497;SDS011;20744;50.938;7.286;2022-10-16T03:22:31;5.95;;;4.07;;
34497;SDS011;20744;50.938;7.286;2022-10-16T03:25:00;11.13;;;4.43;;
34497;SDS011;20744;50.938;7.286;2022-10-16T03:27:27;10.60;;;5.03;;
34497;SDS011;20744;50.938;7.286;2022-10-16T03:29:54;6.82;;;4.45;;
34497;SDS011;20744;50.938;7.286;2022-10-16T03:32:21;9.55;;;4.32;;
34497;SDS011;20744;50.938;7.286;2022-10-16T03:34:50;10.30;;;4.30;;
34497;SDS011;20744;50.938;7.286;2022-10-16T03:37:19;4.65;;;3.90;;
34497;SDS011;20744;50.938;7.286;2022-10-16T03:39:46;8.50;;;3.85;;
34497;SDS011;20744;50.938;7.286;2022-10-16T03:42:15;17.83;;;4.57;;
34497;SDS011;20744;50.938;7.286;2022-10-16T03:44:42;9.30;;;5.15;;
34497;SDS011;20744;50.938;7.286;2022-10-16T03:47:09;10.43;;;4.22;;
34497;SDS011;20744;50.938;7.286;2022-10-16T03:49:36;6.47;;;4.10;;
34497;SDS011;20744;50.938;7.286;2022-10-16T03:52:03;7.70;;;3.95;;
34497;SDS011;20744;50.938;7.286;2022-10-16T03:54:31;9.27;;;3.80;;
34497;SDS011;20744;50.938;7.286;2022-10-16T03:56:58;6.97;;;3.30;;
34497;SDS011;20744;50.938;7.286;2022-10-16T03:59:26;8.27;;;3.53;;
34497;SDS011;20744;50.938;7.286;2022-10-16T04:01:54;5.80;;;3.67;;
34497;SDS011;20744;50.938;7.286;2022-10-16T04:04:21;8.00;;;3.78;;
34497;SDS011;20744;50.938;7.286;2022-10-16T04:06:49;18.58;;;4.90;;
34497;SDS011;20744;50.938;7.286;2022-10-16T04:09:16;11.95;;;5.28;;
34497;SDS011;20744;50.938;7.286;2022-10-16T04:11:43;9.65;;;4.75;;
34497;SDS011;20744;50.938;7.286;2022-10-16T04:14:11;10.13;;;4.38;;
34497;SDS011;20744;50.938;7.286;2022-10-16T04:16:39;13.32;;;4.15;;
34497;SDS011;20744;50.938;7.286;2022-10-16T04:19:06;12.35;;;4.10;;
34497;SDS011;20744;50.938;7.286;2022-10-16T04:21:34;7.43;;;4.05;;
34497;SDS011;20744;50.938;7.286;2022-10-16T04:24:01;8.02;;;3.67;;
34497;SDS011;20744;50.938;7.286;2022-10-16T04:26:28;9.98;;;3.72;;
34497;SDS011;20744;50.938;7.286;2022-10-16T04:28:56;7.40;;;3.45;;
34497;SDS011;20744;50.938;7.286;2022-10-16T04:31:23;12.40;;;3.00;;
34497;SDS011;20744;50.938;7.286;2022-10-16T04:33:51;6.43;;;3.15;;
34497;SDS011;20744;50.938;7.286;2022-10-16T04:36:19;5.55;;;3.55;;
34497;SDS011;20744;50.938;7.286;2022-10-16T04:38:46;9.13;;;3.40;;
34497;SDS011;20744;50.938;7.286;2022-10-16T04:41:13;7.85;;;3.17;;
34497;SDS011;20744;50.938;7.286;2022-10-16T04:43:40;10.77;;;3.05;;
34497;SDS011;20744;50.938;7.286;2022-10-16T04:46:08;7.50;;;2.83;;
34497;SDS011;20744;50.938;7.286;2022-10-16T04:48:35;3.63;;;2.30;;
34497;SDS011;20744;50.938;7.286;2022-10-16T04:51:04;5.88;;;2.42;;
34497;SDS011;20744;50.938;7.286;2022-10-16T04:53:31;12.50;;;3.10;;
34497;SDS011;20744;50.938;7.286;2022-10-16T04:55:59;8.95;;;2.67;;
34497;SDS011;20744;50.938;7.286;2022-10-16T04:58:26;7.25;;;2.58;;
34497;SDS011;20744;50.938;7.286;2022-10-16T05:00:53;5.82;;;2.28;;
34497;SDS011;20744;50.938;7.286;2022-10-16T05:03:20;7.05;;;2.50;;
34497;SDS011;20744;50.938;7.286;2022-10-16T05:05:48;5.00;;;1.95;;
34497;SDS011;20744;50.938;7.286;2022-10-16T05:08:16;5.78;;;1.90;;
34497;SDS011;20744;50.938;7.286;2022-10-16T05:10:44;6.00;;;2.00;;
34497;SDS011;20744;50.938;7.286;2022-10-16T05:13:11;6.20;;;2.00;;
34497;SDS011;20744;50.938;7.286;2022-10-16T05:15:38;6.53;;;1.83;;
34497;SDS011;20744;50.938;7.286;2022-10-16T05:18:06;10.18;;;2.13;;
34497;SDS011;20744;50.938;7.286;2022-10-16T05:20:33;6.05;;;1.83;;
34497;SDS011;20744;50.938;7.286;2022-10-16T05:23:00;5.97;;;1.80;;
34497;SDS011;20744;50.938;7.286;2022-10-16T05:25:29;6.53;;;1.65;;
34497;SDS011;20744;50.938;7.286;2022-10-16T05:27:56;5.32;;;1.80;;
34497;SDS011;20744;50.938;7.286;2022-10-16T05:30:23;3.88;;;1.60;;
34497;SDS011;20744;50.938;7.286;2022-10-16T05:32:50;7.53;;;2.08;;
34497;SDS011;20744;50.938;7.286;2022-10-16T05:35:18;4.60;;;1.30;;
34497;SDS011;20744;50.938;7.286;2022-10-16T05:37:45;4.68;;;1.30;;
34497;SDS011;20744;50.938;7.286;2022-10-16T05:40:13;3.95;;;1.48;;
34497;SDS011;20744;50.938;7.286;2022-10-16T05:42:41;2.92;;;1.60;;
34497;SDS011;20744;50.938;7.286;2022-10-16T05:45:10;5.72;;;1.52;;
34497;SDS011;20744;50.938;7.286;2022-10-16T05:47:37;7.28;;;1.80;;
34497;SDS011;20744;50.938;7.286;2022-10-16T05:50:04;6.25;;;1.38;;
34497;SDS011;20744;50.938;7.286;2022-10-16T05:52:32;7.82;;;1.73;;
34497;SDS011;20744;50.938;7.286;2022-10-16T05:54:59;7.38;;;1.48;;
34497;SDS011;20744;50.938;7.286;2022-10-16T05:57:26;12.20;;;1.90;;
34497;SDS011;20744;50.938;7.286;2022-10-16T05:59:55;9.32;;;1.50;;
34497;SDS011;20744;50.938;7.286;2022-10-16T06:02:22;3.75;;;1.67;;
34497;SDS011;20744;50.938;7.286;2022-10-16T06:04:51;3.50;;;1.23;;
34497;SDS011;20744;50.938;7.286;2022-10-16T06:07:19;8.00;;;1.92;;
34497;SDS011;20744;50.938;7.286;2022-10-16T06:09:47;2.90;;;1.50;;
34497;SDS011;20744;50.938;7.286;2022-10-16T06:12:15;5.10;;;1.70;;
34497;SDS011;20744;50.938;7.286;2022-10-16T06:14:42;4.20;;;2.00;;
34497;SDS011;20744;50.938;7.286;2022-10-16T06:17:10;7.80;;;1.55;;
34497;SDS011;20744;50.938;7.286;2022-10-16T06:19:38;3.03;;;1.58;;
34497;SDS011;20744;50.938;7.286;2022-10-16T06:22:05;3.53;;;1.67;;
34497;SDS011;20744;50.938;7.286;2022-10-16T06:24:32;2.95;;;1.40;;
34497;SDS011;20744;50.938;7.286;2022-10-16T06:26:59;4.78;;;1.60;;
34497;SDS011;20744;50.938;7.286;2022-10-16T06:29:26;8.93;;;2.00;;
34497;SDS011;20744;50.938;7.286;2022-10-16T06:31:54;7.22;;;1.50;;
34497;SDS011;20744;50.938;7.286;2022-10-16T06:34:22;4.85;;;1.42;;
34497;SDS011;20744;50.938;7.286;2022-10-16T06:36:50;6.28;;;1.52;;
34497;SDS011;20744;50.938;7.286;2022-10-16T06:39:17;6.88;;;1.60;;
34497;SDS011;20744;50.938;7.286;2022-10-16T06:41:44;2.80;;;1.52;;
34497;SDS011;20744;50.938;7.286;2022-10-16T06:44:11;3.03;;;1.38;;
34497;SDS011;20744;50.938;7.286;2022-10-16T06:46:38;4.75;;;1.52;;
34497;SDS011;20744;50.938;7.286;2022-10-16T06:49:06;3.60;;;1.60;;
34497;SDS011;20744;50.938;7.286;2022-10-16T06:51:34;7.75;;;1.60;;
34497;SDS011;20744;50.938;7.286;2022-10-16T06:54:05;5.45;;;2.28;;
34497;SDS011;20744;50.938;7.286;2022-10-16T06:56:33;3.03;;;2.20;;
34497;SDS011;20744;50.938;7.286;2022-10-16T06:59:00;6.22;;;2.40;;
34497;SDS011;20744;50.938;7.286;2022-10-16T07:01:28;5.72;;;2.75;;
34497;SDS011;20744;50.938;7.286;2022-10-16T07:03:55;2.80;;;2.35;;
34497;SDS011;20744;50.938;7.286;2022-10-16T07:06:23;3.63;;;2.28;;
34497;SDS011;20744;50.938;7.286;2022-10-16T07:08:52;3.70;;;2.50;;
34497;SDS011;20744;50.938;7.286;2022-10-16T07:11:20;6.03;;;2.78;;
34497;SDS011;20744;50.938;7.286;2022-10-16T07:13:47;6.13;;;2.65;;
34497;SDS011;20744;50.938;7.286;2022-10-16T07:16:16;8.55;;;3.17;;
34497;SDS011;20744;50.938;7.286;2022-10-16T07:18:43;6.93;;;2.15;;
34497;SDS011;20744;50.938;7.286;2022-10-16T07:21:13;5.82;;;2.47;;
34497;SDS011;20744;50.938;7.286;2022-10-16T07:23:41;5.75;;;2.45;;
34497;SDS011;20744;50.938;7.286;2022-10-16T07:26:10;4.85;;;2.40;;
34497;SDS011;20744;50.938;7.286;2022-10-16T07:28:37;5.97;;;2.10;;
34497;SDS011;20744;50.938;7.286;2022-10-16T07:31:05;6.47;;;2.22;;
34497;SDS011;20744;50.938;7.286;2022-10-16T07:33:33;4.78;;;1.95;;
34497;SDS011;20744;50.938;7.286;2022-10-16T07:36:00;4.68;;;2.55;;
34497;SDS011;20744;50.938;7.286;2022-10-16T07:38:27;9.45;;;2.45;;
34497;SDS011;20744;50.938;7.286;2022-10-16T07:40:55;6.85;;;2.45;;
34497;SDS011;20744;50.938;7.286;2022-10-16T07:43:25;12.13;;;3.88;;
34497;SDS011;20744;50.938;7.286;2022-10-16T07:45:52;8.75;;;3.78;;
34497;SDS011;20744;50.938;7.286;2022-10-16T07:48:20;14.40;;;5.15;;
34497;SDS011;20744;50.938;7.286;2022-10-16T07:50:47;9.60;;;3.97;;
34497;SDS011;20744;50.938;7.286;2022-10-16T07:53:14;9.95;;;3.80;;
34497;SDS011;20744;50.938;7.286;2022-10-16T07:55:42;6.63;;;3.90;;
34497;SDS011;20744;50.938;7.286;2022-10-16T07:58:10;11.95;;;4.55;;
34497;SDS011;20744;50.938;7.286;2022-10-16T08:00:38;6.45;;;4.15;;
34497;SDS011;20744;50.938;7.286;2022-10-16T08:03:06;6.65;;;4.55;;
34497;SDS011;20744;50.938;7.286;2022-10-16T08:05:33;11.65;;;4.70;;
34497;SDS011;20744;50.938;7.286;2022-10-16T08:08:00;9.48;;;4.68;;
34497;SDS011;20744;50.938;7.286;2022-10-16T08:10:28;14.63;;;4.75;;
34497;SDS011;20744;50.938;7.286;2022-10-16T08:12:56;6.18;;;4.05;;
34497;SDS011;20744;50.938;7.286;2022-10-16T08:15:24;11.80;;;5.18;;
34497;SDS011;20744;50.938;7.286;2022-10-16T08:17:56;11.38;;;5.15;;
34497;SDS011;20744;50.938;7.286;2022-10-16T08:20:24;15.52;;;5.07;;
34497;SDS011;20744;50.938;7.286;2022-10-16T08:22:51;8.68;;;4.80;;
34497;SDS011;20744;50.938;7.286;2022-10-16T08:25:19;12.57;;;4.53;;
34497;SDS011;20744;50.938;7.286;2022-10-16T08:27:46;9.18;;;4.50;;
34497;SDS011;20744;50.938;7.286;2022-10-16T08:30:14;8.30;;;4.63;;
34497;SDS011;20744;50.938;7.286;2022-10-16T08:32:41;8.98;;;5.03;;
34497;SDS011;20744;50.938;7.286;2022-10-16T08:35:10;9.90;;;5.05;;
34497;SDS011;20744;50.938;7.286;2022-10-16T08:37:37;8.77;;;5.15;;
34497;SDS011;20744;50.938;7.286;2022-10-16T08:40:05;7.35;;;5.50;;
34497;SDS011;20744;50.938;7.286;2022-10-16T08:42:37;14.80;;;4.90;;
34497;SDS011;20744;50.938;7.286;2022-10-16T08:45:19;9.35;;;3.95;;
34497;SDS011;20744;50.938;7.286;2022-10-16T08:47:49;5.10;;;3.63;;
34497;SDS011;20744;50.938;7.286;2022-10-16T08:50:20;5.40;;;3.70;;
34497;SDS011;20744;50.938;7.286;2022-10-16T08:52:48;5.50;;;2.95;;
34497;SDS011;20744;50.938;7.286;2022-10-16T08:55:28;6.88;;;2.50;;
34497;SDS011;20744;50.938;7.286;2022-10-16T08:57:57;6.22;;;2.10;;
34497;SDS011;20744;50.938;7.286;2022-10-16T09:00:24;6.70;;;1.90;;
34497;SDS011;20744;50.938;7.286;2022-10-16T09:02:53;2.70;;;1.92;;
34497;SDS011;20744;50.938;7.286;2022-10-16T09:05:26;2.88;;;1.65;;
34497;SDS011;20744;50.938;7.286;2022-10-16T09:08:00;2.80;;;1.73;;
34497;SDS011;20744;50.938;7.286;2022-10-16T09:10:33;4.20;;;1.70;;
34497;SDS011;20744;50.938;7.286;2022-10-16T09:13:07;2.42;;;1.30;;
34497;SDS011;20744;50.938;7.286;2022-10-16T09:15:39;5.22;;;1.33;;
34497;SDS011;20744;50.938;7.286;2022-10-16T09:18:10;4.88;;;1.08;;
34497;SDS011;20744;50.938;7.286;2022-10-16T09:20:42;1.73;;;1.20;;
34497;SDS011;20744;50.938;7.286;2022-10-16T09:23:16;2.20;;;1.10;;
34497;SDS011;20744;50.938;7.286;2022-10-16T09:25:44;6.13;;;1.10;;
34497;SDS011;20744;50.938;7.286;2022-10-16T09:28:13;4.10;;;0.98;;
34497;SDS011;20744;50.938;7.286;2022-10-16T09:30:40;2.38;;;0.80;;
34497;SDS011;20744;50.938;7.286;2022-10-16T09:33:08;1.23;;;0.75;;
34497;SDS011;20744;50.938;7.286;2022-10-16T09:35:36;2.83;;;0.77;;
34497;SDS011;20744;50.938;7.286;2022-10-16T09:38:06;2.28;;;0.65;;
34497;SDS011;20744;50.938;7.286;2022-10-16T09:40:34;2.45;;;0.68;;
34497;SDS011;20744;50.938;7.286;2022-10-16T09:43:03;2.40;;;0.70;;
34497;SDS011;20744;50.938;7.286;2022-10-16T09:45:32;2.38;;;0.70;;
34497;SDS011;20744;50.938;7.286;2022-10-16T09:48:01;2.03;;;0.70;;
34497;SDS011;20744;50.938;7.286;2022-10-16T09:50:28;4.95;;;0.70;;
34497;SDS011;20744;50.938;7.286;2022-10-16T09:55:51;3.55;;;0.70;;
34497;SDS011;20744;50.938;7.286;2022-10-16T10:00:48;4.10;;;0.85;;
34497;SDS011;20744;50.938;7.286;2022-10-16T10:03:33;1.88;;;0.95;;
34497;SDS011;20744;50.938;7.286;2022-10-16T10:06:01;1.50;;;0.60;;
34497;SDS011;20744;50.938;7.286;2022-10-16T10:08:30;1.23;;;0.60;;
34497;SDS011;20744;50.938;7.286;2022-10-16T10:10:59;2.78;;;0.82;;
34497;SDS011;20744;50.938;7.286;2022-10-16T10:13:26;4.93;;;0.70;;
34497;SDS011;20744;50.938;7.286;2022-10-16T10:15:53;2.33;;;0.52;;
34497;SDS011;20744;50.938;7.286;2022-10-16T10:18:21;1.17;;;0.40;;
34497;SDS011;20744;50.938;7.286;2022-10-16T10:20:56;3.03;;;0.60;;
34497;SDS011;20744;50.938;7.286;2022-10-16T10:23:25;4.00;;;0.60;;
34497;SDS011;20744;50.938;7.286;2022-10-16T10:25:53;3.97;;;0.63;;
34497;SDS011;20744;50.938;7.286;2022-10-16T10:28:31;1.77;;;0.30;;
34497;SDS011;20744;50.938;7.286;2022-10-16T10:31:03;7.50;;;0.60;;
34497;SDS011;20744;50.938;7.286;2022-10-16T10:33:37;3.40;;;0.40;;
34497;SDS011;20744;50.938;7.286;2022-10-16T10:36:10;1.42;;;0.40;;
34497;SDS011;20744;50.938;7.286;2022-10-16T10:38:39;2.88;;;0.70;;
34497;SDS011;20744;50.938;7.286;2022-10-16T10:41:12;2.25;;;0.47;;
34497;SDS011;20744;50.938;7.286;2022-10-16T10:43:47;1.67;;;0.50;;
34497;SDS011;20744;50.938;7.286;2022-10-16T10:46:20;2.30;;;0.40;;
34497;SDS011;20744;50.938;7.286;2022-10-16T10:48:55;3.90;;;0.57;;
34497;SDS011;20744;50.938;7.286;2022-10-16T10:51:26;2.17;;;0.45;;
34497;SDS011;20744;50.938;7.286;2022-10-16T10:53:57;1.55;;;0.45;;
34497;SDS011;20744;50.938;7.286;2022-10-16T10:56:41;2.40;;;0.40;;
34497;SDS011;20744;50.938;7.286;2022-10-16T11:01:57;0.65;;;0.40;;
34497;SDS011;20744;50.938;7.286;2022-10-16T11:07:11;4.35;;;0.70;;
34497;SDS011;20744;50.938;7.286;2022-10-16T11:09:43;5.40;;;0.40;;
34497;SDS011;20744;50.938;7.286;2022-10-16T11:12:12;4.50;;;0.30;;
34497;SDS011;20744;50.938;7.286;2022-10-16T11:14:42;2.40;;;0.30;;
34497;SDS011;20744;50.938;7.286;2022-10-16T11:17:15;4.55;;;0.70;;
34497;SDS011;20744;50.938;7.286;2022-10-16T11:19:44;1.52;;;0.47;;
34497;SDS011;20744;50.938;7.286;2022-10-16T11:22:15;1.85;;;0.40;;
34497;SDS011;20744;50.938;7.286;2022-10-16T11:24:45;0.40;;;0.30;;
34497;SDS011;20744;50.938;7.286;2022-10-16T11:27:15;0.70;;;0.30;;
34497;SDS011;20744;50.938;7.286;2022-10-16T11:29:47;2.45;;;0.60;;
34497;SDS011;20744;50.938;7.286;2022-10-16T11:32:20;3.38;;;0.60;;
34497;SDS011;20744;50.938;7.286;2022-10-16T11:34:50;5.97;;;0.50;;
34497;SDS011;20744;50.938;7.286;2022-10-16T11:37:19;1.10;;;0.50;;
34497;SDS011;20744;50.938;7.286;2022-10-16T11:39:48;2.67;;;0.65;;
34497;SDS011;20744;50.938;7.286;2022-10-16T11:42:18;1.75;;;0.45;;
34497;SDS011;20744;50.938;7.286;2022-10-16T11:44:48;5.32;;;0.40;;
34497;SDS011;20744;50.938;7.286;2022-10-16T11:47:27;3.58;;;0.50;;
34497;SDS011;20744;50.938;7.286;2022-10-16T11:49:58;1.98;;;0.50;;
34497;SDS011;20744;50.938;7.286;2022-10-16T11:52:28;2.78;;;0.60;;
34497;SDS011;20744;50.938;7.286;2022-10-16T11:54:59;1.98;;;0.40;;
34497;SDS011;20744;50.938;7.286;2022-10-16T11:57:30;3.72;;;0.30;;
34497;SDS011;20744;50.938;7.286;2022-10-16T11:59:59;1.63;;;0.40;;
34497;SDS011;20744;50.938;7.286;2022-10-16T12:02:32;2.08;;;0.43;;
34497;SDS011;20744;50.938;7.286;2022-10-16T12:05:03;0.98;;;0.20;;
34497;SDS011;20744;50.938;7.286;2022-10-16T12:07:34;2.55;;;0.38;;
34497;SDS011;20744;50.938;7.286;2022-10-16T12:10:09;2.42;;;0.40;;
34497;SDS011;20744;50.938;7.286;2022-10-16T12:12:37;2.45;;;0.40;;
34497;SDS011;20744;50.938;7.286;2022-10-16T12:15:18;1.27;;;0.30;;
34497;SDS011;20744;50.938;7.286;2022-10-16T12:17:48;2.92;;;0.35;;
34497;SDS011;20744;50.938;7.286;2022-10-16T12:20:19;1.42;;;0.43;;
34497;SDS011;20744;50.938;7.286;2022-10-16T12:22:48;5.78;;;0.20;;
34497;SDS011;20744;50.938;7.286;2022-10-16T12:25:20;2.13;;;0.40;;
34497;SDS011;20744;50.938;7.286;2022-10-16T12:27:53;3.08;;;0.32;;
34497;SDS011;20744;50.938;7.286;2022-10-16T12:30:22;2.97;;;0.63;;
34497;SDS011;20744;50.938;7.286;2022-10-16T12:32:54;1.52;;;0.35;;
34497;SDS011;20744;50.938;7.286;2022-10-16T12:35:22;4.65;;;0.30;;
34497;SDS011;20744;50.938;7.286;2022-10-16T12:37:50;3.13;;;0.40;;
34497;SDS011;20744;50.938;7.286;2022-10-16T12:40:26;4.18;;;0.65;;
34497;SDS011;20744;50.938;7.286;2022-10-16T12:42:53;1.85;;;0.47;;
34497;SDS011;20744;50.938;7.286;2022-10-16T12:45:24;2.67;;;0.30;;
34497;SDS011;20744;50.938;7.286;2022-10-16T12:47:54;0.82;;;0.40;;
34497;SDS011;20744;50.938;7.286;2022-10-16T12:50:26;2.67;;;0.50;;
34497;SDS011;20744;50.938;7.286;2022-10-16T12:52:53;1.15;;;0.30;;
34497;SDS011;20744;50.938;7.286;2022-10-16T12:55:21;2.92;;;0.60;;
34497;SDS011;20744;50.938;7.286;2022-10-16T12:57:56;2.42;;;0.47;;
34497;SDS011;20744;50.938;7.286;2022-10-16T13:00:25;1.20;;;0.40;;
34497;SDS011;20744;50.938;7.286;2022-10-16T13:03:04;3.53;;;0.40;;
34497;SDS011;20744;50.938;7.286;2022-10-16T13:05:42;1.17;;;0.32;;
34497;SDS011;20744;50.938;7.286;2022-10-16T13:08:16;3.42;;;0.60;;
34497;SDS011;20744;50.938;7.286;2022-10-16T13:10:47;3.38;;;0.50;;
34497;SDS011;20744;50.938;7.286;2022-10-16T13:13:26;1.58;;;0.50;;
34497;SDS011;20744;50.938;7.286;2022-10-16T13:16:02;4.45;;;0.90;;
34497;SDS011;20744;50.938;7.286;2022-10-16T13:18:35;1.25;;;0.30;;
34497;SDS011;20744;50.938;7.286;2022-10-16T13:21:10;2.78;;;0.40;;
34497;SDS011;20744;50.938;7.286;2022-10-16T13:23:43;0.40;;;0.30;;
34497;SDS011;20744;50.938;7.286;2022-10-16T13:26:16;0.70;;;0.30;;
34497;SDS011;20744;50.938;7.286;2022-10-16T13:28:47;2.40;;;0.47;;
34497;SDS011;20744;50.938;7.286;2022-10-16T13:31:15;1.05;;;0.45;;
34497;SDS011;20744;50.938;7.286;2022-10-16T13:33:47;1.90;;;0.50;;
34497;SDS011;20744;50.938;7.286;2022-10-16T13:36:19;1.00;;;0.30;;
34497;SDS011;20744;50.938;7.286;2022-10-16T13:38:47;1.30;;;0.40;;
34497;SDS011;20744;50.938;7.286;2022-10-16T13:41:15;3.28;;;0.30;;
34497;SDS011;20744;50.938;7.286;2022-10-16T13:43:43;2.75;;;0.40;;
34497;SDS011;20744;50.938;7.286;2022-10-16T13:46:12;0.80;;;0.30;;
34497;SDS011;20744;50.938;7.286;2022-10-16T13:48:40;3.58;;;0.47;;
34497;SDS011;20744;50.938;7.286;2022-10-16T13:51:12;2.95;;;0.40;;
34497;SDS011;20744;50.938;7.286;2022-10-16T13:53:40;2.10;;;0.40;;
34497;SDS011;20744;50.938;7.286;2022-10-16T13:56:10;2.03;;;0.40;;
34497;SDS011;20744;50.938;7.286;2022-10-16T13:58:37;1.20;;;0.40;;
34497;SDS011;20744;50.938;7.286;2022-10-16T14:01:06;1.38;;;0.47;;
34497;SDS011;20744;50.938;7.286;2022-10-16T14:03:41;1.35;;;0.40;;
34497;SDS011;20744;50.938;7.286;2022-10-16T14:06:12;2.40;;;0.40;;
34497;SDS011;20744;50.938;7.286;2022-10-16T14:08:41;1.00;;;0.50;;
34497;SDS011;20744;50.938;7.286;2022-10-16T14:11:09;2.47;;;0.95;;
34497;SDS011;20744;50.938;7.286;2022-10-16T14:13:37;3.45;;;0.60;;
34497;SDS011;20744;50.938;7.286;2022-10-16T14:16:06;2.70;;;0.50;;
34497;SDS011;20744;50.938;7.286;2022-10-16T14:18:34;4.47;;;0.50;;
34497;SDS011;20744;50.938;7.286;2022-10-16T14:21:03;2.20;;;0.60;;
34497;SDS011;20744;50.938;7.286;2022-10-16T14:23:32;1.88;;;0.60;;
34497;SDS011;20744;50.938;7.286;2022-10-16T14:28:48;2.63;;;0.52;;
34497;SDS011;20744;50.938;7.286;2022-10-16T14:31:26;3.30;;;0.40;;
34497;SDS011;20744;50.938;7.286;2022-10-16T14:33:54;1.88;;;0.57;;
34497;SDS011;20744;50.938;7.286;2022-10-16T14:36:21;1.05;;;0.55;;
34497;SDS011;20744;50.938;7.286;2022-10-16T14:38:53;0.85;;;0.50;;
34497;SDS011;20744;50.938;7.286;2022-10-16T14:41:23;3.10;;;0.50;;
34497;SDS011;20744;50.938;7.286;2022-10-16T14:43:51;2.78;;;0.43;;
34497;SDS011;20744;50.938;7.286;2022-10-16T14:46:20;4.85;;;0.30;;
34497;SDS011;20744;50.938;7.286;2022-10-16T14:48:51;3.38;;;0.60;;
34497;SDS011;20744;50.938;7.286;2022-10-16T14:51:20;1.65;;;0.40;;
34497;SDS011;20744;50.938;7.286;2022-10-16T14:53:49;2.53;;;0.60;;
34497;SDS011;20744;50.938;7.286;2022-10-16T14:56:18;1.20;;;0.45;;
34497;SDS011;20744;50.938;7.286;2022-10-16T14:58:46;1.95;;;0.50;;
34497;SDS011;20744;50.938;7.286;2022-10-16T15:01:13;4.53;;;0.63;;
34497;SDS011;20744;50.938;7.286;2022-10-16T15:03:40;1.60;;;0.40;;
34497;SDS011;20744;50.938;7.286;2022-10-16T15:06:09;2.10;;;0.68;;
34497;SDS011;20744;50.938;7.286;2022-10-16T15:08:37;2.60;;;0.32;;
34497;SDS011;20744;50.938;7.286;2022-10-16T15:11:04;4.18;;;0.77;;